createdAt,value
2023-05-15T00:00:53.112Z,11.20
2023-05-15T00:03:26.558Z,11.20
2023-05-15T00:05:59.497Z,11.20
2023-05-15T00:08:32.470Z,11.20
2023-05-15T00:11:06.135Z,11.10
2023-05-15T00:13:38.821Z,11.20
2023-05-15T00:16:12.121Z,11.20
2023-05-15T00:18:45.661Z,11.20
2023-05-15T00:21:18.631Z,11.10
2023-05-15T00:23:56.328Z,11.20
2023-05-15T00:26:29.187Z,11.20
2023-05-15T00:29:02.006Z,11.20
2023-05-15T00:31:34.522Z,11.10
2023-05-15T00:34:06.863Z,11.10
2023-05-15T00:36:39.307Z,11.10
2023-05-15T00:39:12.567Z,11.10
2023-05-15T00:41:51.213Z,11.10
2023-05-15T00:44:25.664Z,11.00
2023-05-15T00:46:59.546Z,11.00
2023-05-15T00:49:35.688Z,11.10
2023-05-15T00:52:09.805Z,11.10
2023-05-15T00:54:42.155Z,11.00
2023-05-15T00:57:16.296Z,11.00
2023-05-15T00:59:50.110Z,11.00
2023-05-15T01:02:23.527Z,11.00
2023-05-15T01:04:56.606Z,11.10
2023-05-15T01:07:32.444Z,11.00
2023-05-15T01:10:07.846Z,11.00
2023-05-15T01:12:42.141Z,11.00
2023-05-15T01:15:18.231Z,11.00
2023-05-15T01:17:51.976Z,10.90
2023-05-15T01:20:24.836Z,11.00
2023-05-15T01:23:11.929Z,10.90
2023-05-15T01:26:11.857Z,11.00
2023-05-15T01:28:56.160Z,11.00
2023-05-15T01:31:32.994Z,11.10
2023-05-15T01:34:10.251Z,11.10
2023-05-15T01:36:51.719Z,11.10
2023-05-15T01:39:28.100Z,11.00
2023-05-15T01:42:11.067Z,11.10
2023-05-15T01:44:50.625Z,11.00
2023-05-15T01:47:32.563Z,11.00
2023-05-15T01:50:10.181Z,11.00
2023-05-15T01:52:48.125Z,11.00
2023-05-15T01:55:24.146Z,10.90
2023-05-15T01:58:00.048Z,10.90
2023-05-15T02:00:35.551Z,10.90
2023-05-15T02:03:09.035Z,10.80
2023-05-15T02:05:42.914Z,10.80
2023-05-15T02:08:17.258Z,10.70
2023-05-15T02:10:51.189Z,10.60
2023-05-15T02:13:28.019Z,10.60
2023-05-15T02:16:00.796Z,10.50
2023-05-15T02:18:34.644Z,10.50
2023-05-15T02:21:07.288Z,10.50
2023-05-15T02:23:41.546Z,10.50
2023-05-15T02:26:36.919Z,10.50
2023-05-15T02:29:22.720Z,10.50
2023-05-15T02:32:07.974Z,10.50
2023-05-15T02:35:10.795Z,10.40
2023-05-15T02:37:51.365Z,10.40
2023-05-15T02:40:25.833Z,10.50
2023-05-15T02:42:59.287Z,10.40
2023-05-15T02:45:35.463Z,10.40
2023-05-15T02:48:09.347Z,10.40
2023-05-15T02:50:42.537Z,10.40
2023-05-15T02:53:17.016Z,10.40
2023-05-15T02:55:49.976Z,10.40
2023-05-15T02:58:22.335Z,10.40
2023-05-15T03:00:54.763Z,10.40
2023-05-15T03:03:27.608Z,10.40
2023-05-15T03:06:03.234Z,10.50
2023-05-15T03:08:36.297Z,10.50
2023-05-15T03:11:09.431Z,10.50
2023-05-15T03:13:42.584Z,10.50
2023-05-15T03:16:15.564Z,10.50
2023-05-15T03:18:47.921Z,10.50
2023-05-15T03:21:20.621Z,10.50
2023-05-15T03:23:52.819Z,10.50
2023-05-15T03:26:25.024Z,10.50
2023-05-15T03:28:58.401Z,10.40
2023-05-15T03:31:31.112Z,10.40
2023-05-15T03:34:03.906Z,10.40
2023-05-15T03:36:36.778Z,10.40
2023-05-15T03:39:10.607Z,10.40
2023-05-15T03:41:45.063Z,10.40
2023-05-15T03:44:18.090Z,10.40
2023-05-15T03:46:54.612Z,10.40
2023-05-15T03:49:27.342Z,10.40
2023-05-15T03:51:59.953Z,10.40
2023-05-15T03:54:33.346Z,10.40
2023-05-15T03:57:06.980Z,10.40
2023-05-15T03:59:39.687Z,10.30
2023-05-15T04:02:11.971Z,10.30
2023-05-15T04:04:44.959Z,10.30
2023-05-15T04:07:18.191Z,10.40
2023-05-15T04:09:50.467Z,10.40
2023-05-15T04:12:23.024Z,10.40
2023-05-15T04:15:16.282Z,10.40
2023-05-15T04:17:51.329Z,10.50
2023-05-15T04:20:25.436Z,10.50
2023-05-15T04:22:57.673Z,10.50
2023-05-15T04:25:29.837Z,10.50
2023-05-15T04:28:02.093Z,10.50
2023-05-15T04:30:34.358Z,10.50
2023-05-15T04:33:06.976Z,10.50
2023-05-15T04:35:39.473Z,10.60
2023-05-15T04:38:12.069Z,10.60
2023-05-15T04:40:44.486Z,10.60
2023-05-15T04:43:16.921Z,10.70
2023-05-15T04:45:49.702Z,10.70
2023-05-15T04:48:21.900Z,10.70
2023-05-15T04:50:54.654Z,10.70
2023-05-15T04:53:27.000Z,10.70
2023-05-15T04:55:59.329Z,10.80
2023-05-15T04:58:31.840Z,10.80
2023-05-15T05:01:04.456Z,10.80
2023-05-15T05:03:37.090Z,10.80
2023-05-15T05:06:09.824Z,10.90
2023-05-15T05:08:42.376Z,10.90
2023-05-15T05:11:15.062Z,10.90
2023-05-15T05:13:47.740Z,10.90
2023-05-15T05:16:21.806Z,10.80
2023-05-15T05:18:54.287Z,10.80
2023-05-15T05:21:26.527Z,10.80
2023-05-15T05:23:59.505Z,10.90
2023-05-15T05:26:32.156Z,10.90
2023-05-15T05:29:04.353Z,10.90
2023-05-15T05:31:37.128Z,11.00
2023-05-15T05:34:10.034Z,11.00
2023-05-15T05:36:42.665Z,11.00
2023-05-15T05:39:17.076Z,11.00
2023-05-15T05:41:49.387Z,11.00
2023-05-15T05:44:21.770Z,11.00
2023-05-15T05:46:54.405Z,10.90
2023-05-15T05:49:26.677Z,10.90
2023-05-15T05:52:06.356Z,11.00
2023-05-15T05:54:38.607Z,11.00
2023-05-15T05:57:11.213Z,11.10
2023-05-15T05:59:44.115Z,11.10
2023-05-15T06:02:17.100Z,11.10
2023-05-15T06:04:50.247Z,11.10
2023-05-15T06:07:22.412Z,11.10
2023-05-15T06:09:54.553Z,11.10
2023-05-15T06:12:28.559Z,11.20
2023-05-15T06:15:02.296Z,11.30
2023-05-15T06:17:34.910Z,11.30
2023-05-15T06:20:08.916Z,11.30
2023-05-15T06:22:42.325Z,11.20
2023-05-15T06:25:14.936Z,11.30
2023-05-15T06:27:48.120Z,11.40
2023-05-15T06:30:22.745Z,11.50
2023-05-15T06:32:55.279Z,11.50
2023-05-15T06:35:27.920Z,11.50
2023-05-15T06:38:00.818Z,11.60
2023-05-15T06:40:33.815Z,11.80
2023-05-15T06:43:06.750Z,11.80
2023-05-15T06:45:39.041Z,11.90
2023-05-15T06:48:11.460Z,11.90
2023-05-15T06:50:43.813Z,12.00
2023-05-15T06:53:17.836Z,12.10
2023-05-15T06:55:50.632Z,12.00
2023-05-15T06:58:22.901Z,12.10
2023-05-15T07:00:56.702Z,12.10
2023-05-15T07:03:30.911Z,12.10
2023-05-15T07:06:04.607Z,12.10
2023-05-15T07:08:36.901Z,12.20
2023-05-15T07:11:09.275Z,12.20
2023-05-15T07:13:41.652Z,12.20
2023-05-15T07:16:13.810Z,12.10
2023-05-15T07:18:46.290Z,12.10
2023-05-15T07:21:19.452Z,12.10
2023-05-15T07:23:51.794Z,12.20
2023-05-15T07:26:32.495Z,12.20
2023-05-15T07:29:09.147Z,12.20
2023-05-15T07:31:44.994Z,12.30
2023-05-15T07:34:17.697Z,12.40
2023-05-15T07:36:49.874Z,12.50
2023-05-15T07:39:22.092Z,12.50
2023-05-15T07:41:54.649Z,12.50
2023-05-15T07:44:26.820Z,12.60
2023-05-15T07:46:59.362Z,12.80
2023-05-15T07:49:31.872Z,12.90
2023-05-15T07:52:04.189Z,13.10
2023-05-15T07:54:37.019Z,13.30
2023-05-15T07:57:09.754Z,13.50
2023-05-15T07:59:41.895Z,13.60
2023-05-15T08:02:14.025Z,13.70
2023-05-15T08:04:46.337Z,13.80
2023-05-15T08:07:18.641Z,13.90
2023-05-15T08:09:51.129Z,14.00
2023-05-15T08:12:23.338Z,14.10
2023-05-15T08:14:56.587Z,14.00
2023-05-15T08:17:28.938Z,14.00
2023-05-15T08:20:01.141Z,14.10
2023-05-15T08:22:33.535Z,14.00
2023-05-15T08:25:09.705Z,14.00
2023-05-15T08:27:41.977Z,14.20
2023-05-15T08:30:14.415Z,14.20
2023-05-15T08:32:46.646Z,14.30
2023-05-15T08:35:18.880Z,14.40
2023-05-15T08:37:51.196Z,14.50
2023-05-15T08:40:38.448Z,14.60
2023-05-15T08:43:15.853Z,14.60
2023-05-15T08:45:49.454Z,14.60
2023-05-15T08:48:25.524Z,14.60
2023-05-15T08:51:00.024Z,14.50
2023-05-15T08:53:32.357Z,14.50
2023-05-15T08:56:05.425Z,14.60
2023-05-15T08:58:38.190Z,14.70
2023-05-15T09:01:13.336Z,14.70
2023-05-15T09:03:45.599Z,15.00
2023-05-15T09:06:19.676Z,15.10
2023-05-15T09:08:56.163Z,15.40
2023-05-15T09:11:30.215Z,15.50
2023-05-15T09:14:02.670Z,15.50
2023-05-15T09:16:35.332Z,15.30
2023-05-15T09:19:09.246Z,15.00
2023-05-15T09:21:41.530Z,14.90
2023-05-15T09:24:18.728Z,14.60
2023-05-15T09:27:09.974Z,14.40
2023-05-15T09:29:42.299Z,14.00
2023-05-15T09:32:15.914Z,13.60
2023-05-15T09:34:48.609Z,13.50
2023-05-15T09:37:35.599Z,13.40
2023-05-15T09:40:11.980Z,13.40
2023-05-15T09:42:52.089Z,13.40
2023-05-15T09:45:30.586Z,13.50
2023-05-15T09:48:07.711Z,13.60
2023-05-15T09:50:41.587Z,13.80
2023-05-15T09:53:14.217Z,13.90
2023-05-15T09:55:48.749Z,14.30
2023-05-15T09:58:21.128Z,14.50
2023-05-15T10:00:53.252Z,14.80
2023-05-15T10:03:25.587Z,14.90
2023-05-15T10:06:02.299Z,15.00
2023-05-15T10:08:37.227Z,15.20
2023-05-15T10:11:09.798Z,15.30
2023-05-15T10:13:42.583Z,15.40
2023-05-15T10:16:15.635Z,15.60
2023-05-15T10:18:48.800Z,15.90
2023-05-15T10:21:23.286Z,16.40
2023-05-15T10:23:57.778Z,16.70
2023-05-15T10:26:43.339Z,16.60
2023-05-15T10:29:24.339Z,16.70
2023-05-15T10:31:57.936Z,17.00
2023-05-15T10:34:31.106Z,16.80
2023-05-15T10:37:06.178Z,16.80
2023-05-15T10:39:41.288Z,16.60
2023-05-15T10:42:14.398Z,16.40
2023-05-15T10:44:47.739Z,16.30
2023-05-15T10:47:20.681Z,16.20
2023-05-15T10:49:53.532Z,16.20
2023-05-15T10:52:26.086Z,16.00
2023-05-15T10:54:58.548Z,15.90
2023-05-15T10:57:31.285Z,16.00
2023-05-15T11:00:05.903Z,16.20
2023-05-15T11:02:39.632Z,16.20
2023-05-15T11:05:12.934Z,16.20
2023-05-15T11:07:49.772Z,16.00
2023-05-15T11:10:28.058Z,15.90
2023-05-15T11:13:02.650Z,15.80
2023-05-15T11:15:47.915Z,15.80
2023-05-15T11:18:21.167Z,15.70
2023-05-15T11:20:53.583Z,15.40
2023-05-15T11:23:26.107Z,15.20
2023-05-15T11:25:59.084Z,15.00
2023-05-15T11:28:31.703Z,14.70
2023-05-15T11:31:07.364Z,14.30
2023-05-15T11:33:41.008Z,14.20
2023-05-15T11:36:16.065Z,14.00
2023-05-15T11:38:51.126Z,13.90
2023-05-15T11:41:27.821Z,13.80
2023-05-15T11:44:00.154Z,13.60
2023-05-15T11:46:33.655Z,13.50
2023-05-15T11:49:06.451Z,13.40
2023-05-15T11:51:43.370Z,13.20
2023-05-15T11:54:17.076Z,13.20
2023-05-15T11:56:49.979Z,13.20
2023-05-15T11:59:22.238Z,13.10
2023-05-15T12:01:55.016Z,13.10
2023-05-15T12:04:27.670Z,13.10
2023-05-15T12:07:03.246Z,13.10
2023-05-15T12:09:35.622Z,13.10
2023-05-15T12:12:14.268Z,13.10
2023-05-15T12:14:46.880Z,13.10
2023-05-15T12:17:19.110Z,13.20
2023-05-15T12:19:53.048Z,13.20
2023-05-15T12:22:25.310Z,13.30
2023-05-15T12:24:59.939Z,13.30
2023-05-15T12:27:32.747Z,13.40
2023-05-15T12:30:06.660Z,13.50
2023-05-15T12:32:39.597Z,13.50
2023-05-15T12:35:13.618Z,13.40
2023-05-15T12:37:47.182Z,13.30
2023-05-15T12:40:22.219Z,13.10
2023-05-15T12:42:55.480Z,13.00
2023-05-15T12:45:27.864Z,12.80
2023-05-15T12:48:00.504Z,12.70
2023-05-15T12:50:34.110Z,12.60
2023-05-15T12:53:06.846Z,12.40
2023-05-15T12:55:46.820Z,12.20
2023-05-15T12:58:20.373Z,12.10
2023-05-15T13:00:52.598Z,12.00
2023-05-15T13:03:28.032Z,11.90
2023-05-15T13:06:04.022Z,11.80
2023-05-15T13:08:41.819Z,11.70
2023-05-15T13:11:14.689Z,11.60
2023-05-15T13:13:51.167Z,11.60
2023-05-15T13:16:30.033Z,11.60
2023-05-15T13:19:03.090Z,11.60
2023-05-15T13:21:35.584Z,11.60
2023-05-15T13:24:10.137Z,11.60
2023-05-15T13:26:42.389Z,11.60
2023-05-15T13:29:14.604Z,11.80
2023-05-15T13:31:47.421Z,11.90
2023-05-15T13:34:19.715Z,12.00
2023-05-15T13:36:52.292Z,12.10
2023-05-15T13:39:24.571Z,12.20
2023-05-15T13:41:56.747Z,12.30
2023-05-15T13:44:29.430Z,12.40
2023-05-15T13:47:04.627Z,12.50
2023-05-15T13:49:37.098Z,12.60
2023-05-15T13:52:09.792Z,12.50
2023-05-15T13:54:41.966Z,12.50
2023-05-15T13:57:15.451Z,12.50
2023-05-15T13:59:47.633Z,12.60
2023-05-15T14:02:21.370Z,12.70
2023-05-15T14:04:54.252Z,12.70
2023-05-15T14:07:26.665Z,12.80
2023-05-15T14:09:58.894Z,12.80
2023-05-15T14:12:32.581Z,12.80
2023-05-15T14:15:05.332Z,12.80
2023-05-15T14:17:37.939Z,12.80
2023-05-15T14:20:11.851Z,12.80
2023-05-15T14:22:44.319Z,12.80
2023-05-15T14:25:16.902Z,12.90
2023-05-15T14:27:49.133Z,12.90
2023-05-15T14:30:23.213Z,12.90
2023-05-15T14:32:56.004Z,12.90
2023-05-15T14:35:28.226Z,12.90
2023-05-15T14:38:00.547Z,12.90
2023-05-15T14:40:32.803Z,12.90
2023-05-15T14:43:04.968Z,12.90
2023-05-15T14:45:37.622Z,12.90
2023-05-15T14:48:12.106Z,12.90
2023-05-15T14:50:44.853Z,13.10
2023-05-15T14:53:17.527Z,13.30
2023-05-15T14:55:49.902Z,13.70
2023-05-15T14:58:22.216Z,14.20
2023-05-15T15:00:54.321Z,14.50
2023-05-15T15:03:29.020Z,14.70
2023-05-15T15:06:02.428Z,14.70
2023-05-15T15:08:34.605Z,14.60
2023-05-15T15:11:07.932Z,14.50
2023-05-15T15:13:40.339Z,14.40
2023-05-15T15:16:12.680Z,14.30
2023-05-15T15:18:45.431Z,14.00
2023-05-15T15:21:17.596Z,13.90
2023-05-15T15:23:49.980Z,13.70
2023-05-15T15:26:22.757Z,13.60
2023-05-15T15:29:00.949Z,13.40
2023-05-15T15:31:33.386Z,13.30
2023-05-15T15:34:05.960Z,13.20
2023-05-15T15:36:39.579Z,13.10
2023-05-15T15:39:13.228Z,12.90
2023-05-15T15:41:45.754Z,12.90
2023-05-15T15:44:17.917Z,12.80
2023-05-15T15:46:50.061Z,12.80
2023-05-15T15:49:22.248Z,12.70
2023-05-15T15:51:54.980Z,12.60
2023-05-15T15:54:27.712Z,12.50
2023-05-15T15:57:00.302Z,12.50
2023-05-15T15:59:32.454Z,12.40
2023-05-15T16:02:06.056Z,12.40
2023-05-15T16:04:39.123Z,12.40
2023-05-15T16:07:11.412Z,12.40
2023-05-15T16:09:43.642Z,12.40
2023-05-15T16:12:16.602Z,12.40
2023-05-15T16:14:49.049Z,12.40
2023-05-15T16:17:22.211Z,12.40
2023-05-15T16:19:54.412Z,12.50
2023-05-15T16:22:26.578Z,12.50
2023-05-15T16:24:58.763Z,12.50
2023-05-15T16:27:31.334Z,12.50
2023-05-15T16:30:03.704Z,12.60
2023-05-15T16:32:36.770Z,12.60
2023-05-15T16:35:09.589Z,12.70
2023-05-15T16:37:41.937Z,12.70
2023-05-15T16:40:14.111Z,12.70
2023-05-15T16:42:47.178Z,12.80
2023-05-15T16:45:19.369Z,12.90
2023-05-15T16:47:51.928Z,12.90
2023-05-15T16:50:24.710Z,12.90
2023-05-15T16:52:57.149Z,12.90
2023-05-15T16:55:29.738Z,12.90
2023-05-15T16:58:01.890Z,12.90
2023-05-15T17:00:34.040Z,13.00
2023-05-15T17:03:07.380Z,13.10
2023-05-15T17:05:40.323Z,13.00
2023-05-15T17:08:12.686Z,13.10
2023-05-15T17:10:45.169Z,13.20
2023-05-15T17:13:17.266Z,13.20
2023-05-15T17:15:50.012Z,13.20
2023-05-15T17:18:22.736Z,13.20
2023-05-15T17:20:54.916Z,13.20
2023-05-15T17:23:27.422Z,13.20
2023-05-15T17:25:59.628Z,13.20
2023-05-15T17:28:31.994Z,13.20
2023-05-15T17:31:10.947Z,13.10
2023-05-15T17:33:43.143Z,13.10
2023-05-15T17:36:15.942Z,13.10
2023-05-15T17:38:48.094Z,13.10
2023-05-15T17:41:20.249Z,13.10
2023-05-15T17:43:53.127Z,13.10
2023-05-15T17:46:25.576Z,13.10
2023-05-15T17:48:57.788Z,13.00
2023-05-15T17:51:29.969Z,13.00
2023-05-15T17:54:02.200Z,13.00
2023-05-15T17:56:34.624Z,13.00
2023-05-15T17:59:06.899Z,13.00
2023-05-15T18:01:39.407Z,12.90
2023-05-15T18:04:11.943Z,12.90
2023-05-15T18:06:44.405Z,12.90
2023-05-15T18:09:16.792Z,12.80
2023-05-15T18:11:49.005Z,12.80
2023-05-15T18:14:21.853Z,12.60
2023-05-15T18:16:55.525Z,12.60
2023-05-15T18:19:27.674Z,12.60
2023-05-15T18:22:03.358Z,12.50
2023-05-15T18:24:35.820Z,12.40
2023-05-15T18:27:08.277Z,12.50
2023-05-15T18:29:40.726Z,12.50
2023-05-15T18:32:12.990Z,12.40
2023-05-15T18:34:47.135Z,12.40
2023-05-15T18:37:19.415Z,12.40
2023-05-15T18:39:53.250Z,12.30
2023-05-15T18:42:26.567Z,12.30
2023-05-15T18:44:58.844Z,12.30
2023-05-15T18:47:31.264Z,12.20
2023-05-15T18:50:03.553Z,12.10
2023-05-15T18:52:36.165Z,12.00
2023-05-15T18:55:12.173Z,11.90
2023-05-15T18:57:44.364Z,11.90
2023-05-15T19:00:26.622Z,11.80
2023-05-15T19:03:06.560Z,11.70
2023-05-15T19:05:39.033Z,11.70
2023-05-15T19:08:11.406Z,11.70
2023-05-15T19:10:51.079Z,11.70
2023-05-15T19:13:23.417Z,11.60
2023-05-15T19:15:56.291Z,11.60
2023-05-15T19:18:29.211Z,11.50
2023-05-15T19:21:02.289Z,11.40
2023-05-15T19:23:35.250Z,11.40
2023-05-15T19:26:07.728Z,11.30
2023-05-15T19:28:40.354Z,11.30
2023-05-15T19:31:23.985Z,11.20
2023-05-15T19:34:02.960Z,11.20
2023-05-15T19:36:35.356Z,11.20
2023-05-15T19:39:07.615Z,11.20
2023-05-15T19:41:40.631Z,11.20
2023-05-15T19:44:13.388Z,11.10
2023-05-15T19:46:46.932Z,11.10
2023-05-15T19:49:19.402Z,11.10
2023-05-15T19:51:52.860Z,11.10
2023-05-15T19:54:26.069Z,11.00
2023-05-15T19:57:02.807Z,10.90
2023-05-15T19:59:35.200Z,10.90
2023-05-15T20:02:10.660Z,10.90
2023-05-15T20:04:43.124Z,10.80
2023-05-15T20:07:15.589Z,10.80
2023-05-15T20:09:48.813Z,10.80
2023-05-15T20:12:21.890Z,10.80
2023-05-15T20:14:54.781Z,10.70
2023-05-15T20:17:28.240Z,10.70
2023-05-15T20:20:02.423Z,10.70
2023-05-15T20:22:35.009Z,10.70
2023-05-15T20:25:08.234Z,10.70
2023-05-15T20:27:40.684Z,10.80
2023-05-15T20:30:13.099Z,10.80
2023-05-15T20:32:47.284Z,10.80
2023-05-15T20:35:20.097Z,10.80
2023-05-15T20:37:53.448Z,10.80
2023-05-15T20:40:27.001Z,10.80
2023-05-15T20:42:59.827Z,10.80
2023-05-15T20:45:35.244Z,10.80
2023-05-15T20:48:09.542Z,10.80
2023-05-15T20:50:42.529Z,10.80
2023-05-15T20:53:15.630Z,10.80
2023-05-15T20:55:48.794Z,10.80
2023-05-15T20:58:21.462Z,10.80
2023-05-15T21:00:53.685Z,10.80
2023-05-15T21:03:26.515Z,10.80
2023-05-15T21:05:59.670Z,10.70
2023-05-15T21:08:32.130Z,10.70
2023-05-15T21:11:04.533Z,10.70
2023-05-15T21:13:36.748Z,10.70
2023-05-15T21:16:09.415Z,10.80
2023-05-15T21:18:42.764Z,10.80
2023-05-15T21:21:15.735Z,10.80
2023-05-15T21:23:49.405Z,10.80
2023-05-15T21:26:23.080Z,10.80
2023-05-15T21:28:59.651Z,10.70
2023-05-15T21:31:35.902Z,10.70
2023-05-15T21:34:08.165Z,10.70
2023-05-15T21:36:40.414Z,10.80
2023-05-15T21:39:13.631Z,10.80
2023-05-15T21:41:46.180Z,10.80
2023-05-15T21:44:18.510Z,10.80
2023-05-15T21:46:51.333Z,10.80
2023-05-15T21:49:23.484Z,10.80
2023-05-15T21:52:04.210Z,10.80
2023-05-15T21:54:36.929Z,10.80
2023-05-15T21:57:12.820Z,10.80
2023-05-15T21:59:48.731Z,10.80
2023-05-15T22:02:22.796Z,10.80
2023-05-15T22:04:55.593Z,10.80
2023-05-15T22:07:28.198Z,10.80
2023-05-15T22:10:03.343Z,10.70
2023-05-15T22:12:36.065Z,10.80
2023-05-15T22:15:09.740Z,10.80
2023-05-15T22:17:42.002Z,10.80
2023-05-15T22:20:14.331Z,10.80
2023-05-15T22:22:47.688Z,10.80
2023-05-15T22:25:20.245Z,10.90
2023-05-15T22:27:52.768Z,10.90
2023-05-15T22:30:25.161Z,10.80
2023-05-15T22:32:57.696Z,10.80
2023-05-15T22:35:30.682Z,10.90
2023-05-15T22:38:02.906Z,10.80
2023-05-15T22:40:35.178Z,10.90
2023-05-15T22:43:07.449Z,10.80
2023-05-15T22:45:40.229Z,10.90
2023-05-15T22:48:12.655Z,10.90
2023-05-15T22:50:46.153Z,10.90
2023-05-15T22:53:18.773Z,10.90
2023-05-15T22:55:51.306Z,10.90
2023-05-15T22:58:24.002Z,10.90
2023-05-15T23:00:56.518Z,10.90
2023-05-15T23:03:28.704Z,10.90
2023-05-15T23:06:01.907Z,10.90
2023-05-15T23:08:34.031Z,10.90
2023-05-15T23:11:06.187Z,10.80
2023-05-15T23:13:38.460Z,10.80
2023-05-15T23:16:11.017Z,10.80
2023-05-15T23:18:43.403Z,10.80
2023-05-15T23:21:15.613Z,10.90
2023-05-15T23:23:48.462Z,10.90
2023-05-15T23:26:21.518Z,10.90
2023-05-15T23:28:54.224Z,10.80
2023-05-15T23:31:26.722Z,10.80
2023-05-15T23:33:59.132Z,10.80
2023-05-15T23:36:31.353Z,10.80
2023-05-15T23:39:05.074Z,10.80
2023-05-15T23:41:37.241Z,10.80
2023-05-15T23:44:09.821Z,10.80
2023-05-15T23:46:42.067Z,10.80
2023-05-15T23:49:14.625Z,10.80
2023-05-15T23:51:47.930Z,10.80
2023-05-15T23:54:20.351Z,10.80
2023-05-15T23:56:52.810Z,10.70
2023-05-15T23:59:25.207Z,10.70
